createdAt,value
2023-03-03T00:01:21.560Z,7.80
2023-03-03T00:06:24.967Z,7.80
2023-03-03T00:11:27.010Z,7.80
2023-03-03T00:16:40.867Z,7.70
2023-03-03T00:21:45.623Z,7.70
2023-03-03T00:26:56.638Z,7.70
2023-03-03T00:32:25.383Z,7.80
2023-03-03T00:37:35.383Z,7.80
2023-03-03T00:42:37.371Z,7.80
2023-03-03T00:47:43.936Z,7.70
2023-03-03T00:53:14.576Z,7.60
2023-03-03T00:58:21.814Z,7.60
2023-03-03T01:03:26.721Z,7.60
2023-03-03T01:08:29.369Z,7.60
2023-03-03T01:13:35.690Z,7.60
2023-03-03T01:18:41.802Z,7.70
2023-03-03T01:23:43.702Z,7.70
2023-03-03T01:28:45.586Z,7.60
2023-03-03T01:33:47.413Z,7.60
2023-03-03T01:38:49.284Z,7.50
2023-03-03T01:43:51.416Z,7.40
2023-03-03T01:49:02.984Z,7.40
2023-03-03T01:54:12.439Z,7.30
2023-03-03T01:59:19.847Z,7.30
2023-03-03T02:04:22.065Z,7.30
2023-03-03T02:09:38.563Z,7.40
2023-03-03T02:14:40.471Z,7.40
2023-03-03T02:20:06.980Z,7.30
2023-03-03T02:25:15.859Z,7.30
2023-03-03T02:30:21.580Z,7.30
2023-03-03T02:35:32.820Z,7.30
2023-03-03T02:40:40.320Z,7.30
2023-03-03T02:45:44.396Z,7.30
2023-03-03T02:50:46.303Z,7.40
2023-03-03T02:55:48.365Z,7.40
2023-03-03T03:00:50.476Z,7.40
2023-03-03T03:05:56.900Z,7.50
2023-03-03T03:11:00.580Z,7.50
2023-03-03T03:16:04.672Z,7.50
2023-03-03T03:21:12.105Z,7.50
2023-03-03T03:26:15.250Z,7.40
2023-03-03T03:31:21.194Z,7.40
2023-03-03T03:36:23.142Z,7.50
2023-03-03T03:41:25.813Z,7.50
2023-03-03T03:46:27.945Z,7.50
2023-03-03T03:51:31.236Z,7.50
2023-03-03T03:56:33.854Z,7.50
2023-03-03T04:01:37.358Z,7.50
2023-03-03T04:06:39.421Z,7.50
2023-03-03T04:11:41.879Z,7.50
2023-03-03T04:16:45.542Z,7.50
2023-03-03T04:21:48.008Z,7.40
2023-03-03T04:26:49.926Z,7.40
2023-03-03T04:31:52.024Z,7.40
2023-03-03T04:36:54.658Z,7.30
2023-03-03T04:41:56.590Z,7.30
2023-03-03T04:46:59.075Z,7.20
2023-03-03T04:52:01.066Z,7.20
2023-03-03T04:57:03.115Z,7.30
2023-03-03T05:02:05.419Z,7.30
2023-03-03T05:07:07.441Z,7.30
2023-03-03T05:12:09.254Z,7.30
2023-03-03T05:17:11.045Z,7.40
2023-03-03T05:22:12.925Z,7.40
2023-03-03T05:27:15.222Z,7.50
2023-03-03T05:32:17.314Z,7.50
2023-03-03T05:37:19.186Z,7.60
2023-03-03T05:42:21.993Z,7.60
2023-03-03T05:47:23.852Z,7.50
2023-03-03T05:52:25.668Z,7.50
2023-03-03T05:57:27.827Z,7.60
2023-03-03T06:02:29.674Z,7.60
2023-03-03T06:07:31.576Z,7.60
2023-03-03T06:12:33.469Z,7.60
2023-03-03T06:17:35.296Z,7.70
2023-03-03T06:22:37.163Z,7.70
2023-03-03T06:27:39.299Z,7.70
2023-03-03T06:32:41.324Z,7.80
2023-03-03T06:37:43.193Z,7.70
2023-03-03T06:42:45.186Z,7.70
2023-03-03T06:47:47.189Z,7.70
2023-03-03T06:52:49.656Z,7.70
2023-03-03T06:57:51.768Z,7.70
2023-03-03T07:03:18.775Z,7.80
2023-03-03T07:08:23.234Z,7.80
2023-03-03T07:13:27.632Z,7.80
2023-03-03T07:18:51.705Z,7.80
2023-03-03T07:23:54.320Z,7.80
2023-03-03T07:29:25.474Z,7.70
2023-03-03T07:34:37.061Z,7.90
2023-03-03T07:39:42.313Z,7.90
2023-03-03T07:44:46.897Z,7.90
2023-03-03T07:49:50.502Z,7.90
2023-03-03T07:54:53.580Z,7.90
2023-03-03T08:00:16.675Z,8.00
2023-03-03T08:05:35.754Z,8.00
2023-03-03T08:10:46.633Z,8.00
2023-03-03T08:16:08.901Z,8.00
2023-03-03T08:21:15.065Z,7.90
2023-03-03T08:26:18.003Z,7.80
2023-03-03T08:31:34.350Z,7.80
2023-03-03T08:36:41.976Z,7.90
2023-03-03T08:41:44.528Z,7.90
2023-03-03T08:46:46.593Z,8.00
2023-03-03T08:51:48.495Z,8.00
2023-03-03T08:56:50.351Z,8.00
2023-03-03T09:01:52.954Z,8.00
2023-03-03T09:06:54.850Z,8.10
2023-03-03T09:12:13.278Z,8.20
2023-03-03T09:17:35.668Z,8.40
2023-03-03T09:22:38.613Z,8.50
2023-03-03T09:27:41.701Z,8.60
2023-03-03T09:32:43.713Z,8.70
2023-03-03T09:37:47.532Z,8.80
2023-03-03T09:43:13.808Z,8.80
2023-03-03T09:48:40.824Z,9.00
2023-03-03T09:53:49.204Z,9.20
2023-03-03T09:59:23.180Z,9.30
2023-03-03T10:04:40.881Z,9.30
2023-03-03T10:10:03.252Z,9.40
2023-03-03T10:15:19.995Z,9.50
2023-03-03T10:20:49.726Z,9.50
2023-03-03T10:26:22.429Z,9.60
2023-03-03T10:31:37.193Z,9.60
2023-03-03T10:36:49.519Z,9.60
2023-03-03T10:42:08.097Z,9.80
2023-03-03T10:47:28.227Z,10.00
2023-03-03T10:52:55.149Z,10.10
2023-03-03T10:58:18.067Z,10.30
2023-03-03T11:03:44.913Z,10.50
2023-03-03T11:08:56.773Z,10.50
2023-03-03T11:14:34.792Z,10.50
2023-03-03T11:19:57.642Z,10.60
2023-03-03T11:25:16.601Z,10.70
2023-03-03T11:30:25.436Z,10.80
2023-03-03T11:35:55.893Z,10.90
2023-03-03T11:41:22.871Z,11.20
2023-03-03T11:46:40.813Z,11.40
2023-03-03T11:52:06.726Z,11.50
2023-03-03T11:57:28.606Z,11.70
2023-03-03T12:02:51.680Z,12.10
2023-03-03T12:08:07.856Z,12.40
2023-03-03T12:13:21.151Z,12.50
2023-03-03T12:18:23.197Z,12.60
2023-03-03T12:23:49.232Z,12.60
2023-03-03T12:28:58.232Z,12.70
2023-03-03T12:34:18.882Z,12.60
2023-03-03T12:39:38.609Z,12.60
2023-03-03T12:44:49.654Z,12.60
2023-03-03T12:50:09.863Z,12.50
2023-03-03T12:55:18.572Z,12.50
2023-03-03T13:00:36.098Z,12.40
2023-03-03T13:05:59.040Z,12.40
2023-03-03T13:11:22.237Z,12.30
2023-03-03T13:16:41.808Z,12.20
2023-03-03T13:21:48.918Z,12.20
2023-03-03T13:27:01.924Z,12.20
2023-03-03T13:32:14.655Z,12.10
2023-03-03T13:37:22.544Z,12.20
2023-03-03T13:42:24.279Z,12.10
2023-03-03T13:47:38.324Z,12.10
2023-03-03T13:53:17.378Z,12.10
2023-03-03T13:58:36.895Z,12.10
2023-03-03T14:03:57.494Z,12.00
2023-03-03T14:09:05.396Z,11.70
2023-03-03T14:14:28.497Z,11.60
2023-03-03T14:19:33.293Z,11.60
2023-03-03T14:25:01.891Z,11.40
2023-03-03T14:30:22.084Z,11.30
2023-03-03T14:35:26.019Z,10.90
2023-03-03T14:40:33.668Z,11.00
2023-03-03T14:45:41.237Z,11.10
2023-03-03T14:50:56.688Z,11.00
2023-03-03T14:56:15.373Z,11.00
2023-03-03T15:01:32.815Z,11.00
2023-03-03T15:06:45.070Z,11.20
2023-03-03T15:11:46.971Z,11.40
2023-03-03T15:16:48.988Z,11.50
2023-03-03T15:22:19.225Z,11.50
2023-03-03T15:27:47.794Z,11.40
2023-03-03T15:33:03.751Z,11.40
2023-03-03T15:38:27.338Z,11.50
2023-03-03T15:43:54.250Z,11.60
2023-03-03T15:49:13.474Z,11.70
2023-03-03T15:54:44.594Z,11.80
2023-03-03T16:00:09.796Z,11.80
2023-03-03T16:05:38.448Z,11.90
2023-03-03T16:11:04.807Z,12.00
2023-03-03T16:16:06.665Z,12.00
2023-03-03T16:21:34.974Z,12.00
2023-03-03T16:27:21.488Z,12.00
2023-03-03T16:32:47.652Z,12.10
2023-03-03T16:37:58.782Z,12.10
2023-03-03T16:43:22.371Z,12.20
2023-03-03T16:48:39.351Z,12.20
2023-03-03T16:53:56.143Z,12.20
2023-03-03T16:59:23.421Z,12.30
2023-03-03T17:04:46.387Z,12.30
2023-03-03T17:10:19.548Z,12.40
2023-03-03T17:15:21.424Z,12.40
2023-03-03T17:20:31.601Z,12.50
2023-03-03T17:25:52.090Z,12.50
2023-03-03T17:31:20.253Z,12.50
2023-03-03T17:36:54.552Z,12.40
2023-03-03T17:42:19.187Z,12.40
2023-03-03T17:47:27.385Z,12.40
2023-03-03T17:52:48.691Z,12.30
2023-03-03T17:58:06.865Z,12.10
2023-03-03T18:03:40.586Z,11.90
2023-03-03T18:09:13.667Z,11.90
2023-03-03T18:14:34.124Z,11.90
2023-03-03T18:20:13.425Z,11.80
2023-03-03T18:25:36.725Z,11.70
2023-03-03T18:30:59.872Z,11.70
2023-03-03T18:36:27.273Z,11.50
2023-03-03T18:41:53.560Z,11.50
2023-03-03T18:46:56.378Z,11.50
2023-03-03T18:52:37.061Z,11.40
2023-03-03T18:57:39.353Z,11.30
2023-03-03T19:02:51.620Z,11.20
2023-03-03T19:08:16.067Z,11.10
2023-03-03T19:13:40.582Z,11.00
2023-03-03T19:18:42.401Z,11.10
2023-03-03T19:24:25.383Z,11.00
2023-03-03T19:29:41.493Z,11.00
2023-03-03T19:35:02.124Z,11.00
2023-03-03T19:40:37.085Z,10.90
2023-03-03T19:46:05.422Z,10.80
2023-03-03T19:51:10.476Z,10.70
2023-03-03T19:56:29.726Z,10.70
2023-03-03T20:01:59.575Z,10.80
2023-03-03T20:07:15.824Z,10.80
2023-03-03T20:12:17.694Z,10.80
2023-03-03T20:17:43.325Z,10.80
2023-03-03T20:22:53.467Z,10.70
2023-03-03T20:28:26.470Z,10.70
2023-03-03T20:33:50.519Z,10.70
2023-03-03T20:39:04.931Z,10.70
2023-03-03T20:44:24.493Z,10.70
2023-03-03T20:49:39.938Z,10.80
2023-03-03T20:55:04.308Z,10.80
2023-03-03T21:00:14.865Z,10.80
2023-03-03T21:05:24.915Z,10.80
2023-03-03T21:10:29.582Z,10.80
2023-03-03T21:15:36.242Z,10.80
2023-03-03T21:20:38.375Z,10.80
2023-03-03T21:25:54.242Z,10.80
2023-03-03T21:31:12.413Z,10.80
2023-03-03T21:36:21.036Z,10.70
2023-03-03T21:41:22.971Z,10.60
2023-03-03T21:46:25.668Z,10.60
2023-03-03T21:51:28.841Z,10.50
2023-03-03T21:56:30.817Z,10.50
2023-03-03T22:01:32.885Z,10.40
2023-03-03T22:06:34.861Z,10.40
2023-03-03T22:11:36.904Z,10.40
2023-03-03T22:16:38.999Z,10.40
2023-03-03T22:21:41.207Z,10.40
2023-03-03T22:26:43.360Z,10.40
2023-03-03T22:31:45.283Z,10.30
2023-03-03T22:36:47.326Z,10.30
2023-03-03T22:41:49.244Z,10.20
2023-03-03T22:46:51.089Z,10.20
2023-03-03T22:51:53.273Z,10.10
2023-03-03T22:56:56.289Z,10.10
2023-03-03T23:01:58.147Z,10.10
2023-03-03T23:07:01.142Z,10.10
2023-03-03T23:12:03.544Z,10.10
2023-03-03T23:17:05.510Z,10.10
2023-03-03T23:22:07.509Z,10.00
2023-03-03T23:27:10.698Z,9.90
2023-03-03T23:32:13.096Z,9.80
2023-03-03T23:37:15.178Z,9.80
2023-03-03T23:42:17.105Z,9.70
2023-03-03T23:47:19.161Z,9.60
2023-03-03T23:52:21.161Z,9.50
2023-03-03T23:57:23.139Z,9.50
